Kansas City, Missouri
Traffic Map
Current Weather Conditions
Kansas City, Missouri
Overcast
Overcast
46°
Feels Like: 42°
Wind Chill: 42° Ceiling: 1300
Heat Index: 46° Visibility: 9mi
Dew Point: 39° Wind: 7mph
Humidity: 76% Direction: 320° (NW)
Pressure: 29.91in Gusts: 0mph
Raw Report DataKMKC 131854Z 32006KT 9SM OVC013 08/04 A2991 RMK AO2 SLP131 T00780039
Traffic Incident Summary
Active as of:
Severity:
Category:
InformationThere was an issue retrieving the traffic information for this location. Please try a different location or try again shortly.
Advertisements